Time;durP1;ratioP1;P1;durP2;ratioP2;P2;SDS_P1;SDS_P2;PMS_P1;PMS_P2;Temp;Humidity;BMP_temperature;BMP_pressure;BME280_temperature;BME280_humidity;BME280_pressure;Samples;Min_cycle;Max_cycle;Signal;HPM_P1;HPM_P2
2022/06/15 00:01:04;;;;;;;11.60;5.43;;;13.20;99.90;;;;;;4967380;28;204576;-72
2022/06/15 00:03:32;;;;;;;11.80;4.82;;;13.20;99.90;;;;;;5024532;28;20045;-72
2022/06/15 00:06:08;;;;;;;12.13;5.00;;;13.20;99.90;;;;;;4951916;28;210299;-73
2022/06/15 00:08:35;;;;;;;11.57;5.13;;;13.10;99.90;;;;;;5032824;28;20473;-74
2022/06/15 00:11:13;;;;;;;13.10;5.13;;;13.10;99.90;;;;;;4964215;28;206463;-72
2022/06/15 00:13:39;;;;;;;13.57;5.43;;;13.00;99.90;;;;;;5039052;28;20601;-72
2022/06/15 00:16:06;;;;;;;12.93;5.32;;;13.00;99.90;;;;;;4973558;28;273844;-72
2022/06/15 00:18:33;;;;;;;14.02;5.38;;;13.00;99.90;;;;;;5039031;28;20060;-73
2022/06/15 00:21:00;;;;;;;13.88;5.60;;;13.00;99.90;;;;;;4974907;28;254170;-71
2022/06/15 00:23:28;;;;;;;11.65;5.30;;;12.90;99.90;;;;;;5038709;28;20053;-72
2022/06/15 00:25:54;;;;;;;11.85;5.13;;;12.90;99.90;;;;;;4977766;28;271359;-72
2022/06/15 00:28:21;;;;;;;13.45;4.90;;;12.90;99.90;;;;;;5028341;28;20513;-73
2022/06/15 00:30:51;;;;;;;11.57;4.95;;;12.80;99.90;;;;;;4963047;28;207228;-73
2022/06/15 00:33:21;;;;;;;12.32;5.28;;;12.80;99.90;;;;;;5022312;28;20057;-72
2022/06/15 00:35:56;;;;;;;12.43;5.63;;;12.80;99.90;;;;;;4960434;28;206157;-72
2022/06/15 00:38:23;;;;;;;12.82;5.22;;;12.80;99.90;;;;;;5038428;28;20045;-74
2022/06/15 00:40:49;;;;;;;12.00;5.40;;;12.70;99.90;;;;;;4973376;28;256204;-74
2022/06/15 00:43:36;;;;;;;14.55;5.10;;;12.70;99.90;;;;;;5022723;28;20081;-73
2022/06/15 00:46:22;;;;;;;14.90;5.15;;;12.70;99.90;;;;;;4972077;28;266250;-73
2022/06/15 00:48:52;;;;;;;15.25;5.97;;;12.60;99.90;;;;;;5040178;28;20044;-72
2022/06/15 00:51:18;;;;;;;12.68;4.95;;;12.60;99.90;;;;;;4976638;28;268152;-72
2022/06/15 00:53:45;;;;;;;13.50;5.20;;;12.60;99.90;;;;;;5023650;28;20061;-72
2022/06/15 00:56:12;;;;;;;11.63;4.97;;;12.50;99.90;;;;;;4963713;28;205378;-72
2022/06/15 00:58:41;;;;;;;14.50;6.22;;;12.50;99.90;;;;;;5022511;28;20623;-73
2022/06/15 01:01:07;;;;;;;13.18;5.20;;;12.40;99.90;;;;;;4975135;28;248929;-72
2022/06/15 01:03:34;;;;;;;11.25;5.28;;;12.40;99.90;;;;;;5019705;28;20044;-72
2022/06/15 01:06:22;;;;;;;12.93;4.97;;;12.40;99.90;;;;;;4924371;28;219644;-72
2022/06/15 01:09:12;;;;;;;12.80;5.38;;;12.30;99.90;;;;;;5028879;28;20068;-72
2022/06/15 01:12:24;;;;;;;11.03;5.07;;;12.30;99.90;;;;;;4932565;28;210761;-73
2022/06/15 01:14:51;;;;;;;10.27;4.57;;;12.20;99.90;;;;;;4918404;28;63399;-73
2022/06/15 01:17:47;;;;;;;11.05;4.55;;;12.20;99.90;;;;;;4889518;28;127922;-72
2022/06/15 01:20:38;;;;;;;11.00;4.93;;;12.10;99.90;;;;;;4911774;28;212715;-71
2022/06/15 01:23:15;;;;;;;11.60;5.20;;;12.10;99.90;;;;;;4947646;28;205363;-72
2022/06/15 01:26:17;;;;;;;10.70;4.35;;;12.10;99.90;;;;;;4888788;28;206377;-72
2022/06/15 01:28:50;;;;;;;12.10;5.03;;;12.10;99.90;;;;;;4952562;28;20152;-73
2022/06/15 01:31:17;;;;;;;13.65;4.97;;;12.00;99.90;;;;;;4886174;28;273547;-72
2022/06/15 01:33:45;;;;;;;11.43;4.97;;;12.00;99.90;;;;;;4948915;28;20346;-72
2022/06/15 01:36:29;;;;;;;13.00;5.50;;;12.00;99.90;;;;;;4901258;28;206276;-72
2022/06/15 01:39:04;;;;;;;14.10;5.05;;;11.90;99.90;;;;;;4967600;28;20452;-73
2022/06/15 01:41:54;;;;;;;14.68;5.30;;;11.90;99.90;;;;;;4887356;28;179264;-73
2022/06/15 01:44:32;;;;;;;14.98;4.93;;;11.90;99.90;;;;;;4947563;28;142866;-72
2022/06/15 01:47:04;;;;;;;10.52;4.20;;;11.80;99.90;;;;;;4907871;28;206805;-72
2022/06/15 01:49:35;;;;;;;10.93;4.40;;;11.80;99.90;;;;;;4928055;28;247939;-72
2022/06/15 01:52:03;;;;;;;13.77;4.97;;;11.80;99.90;;;;;;4936497;28;217318;-73
2022/06/15 01:54:38;;;;;;;11.18;5.10;;;11.80;99.90;;;;;;5021990;28;272362;-72
2022/06/15 01:57:07;;;;;;;11.30;4.30;;;11.70;99.90;;;;;;4968424;28;215526;-73
2022/06/15 01:59:33;;;;;;;13.70;5.20;;;11.70;99.90;;;;;;4999588;28;200089;-74
2022/06/15 02:02:30;;;;;;;13.52;5.03;;;11.70;99.90;;;;;;4988784;28;207755;-73
2022/06/15 02:05:30;;;;;;;14.63;4.55;;;11.60;99.90;;;;;;5006212;28;136300;-74
2022/06/15 02:08:05;;;;;;;12.93;4.82;;;11.60;99.90;;;;;;4968114;28;206014;-73
2022/06/15 02:11:05;;;;;;;11.68;4.53;;;11.60;99.90;;;;;;4966499;28;240545;-73
2022/06/15 02:13:49;;;;;;;18.00;6.07;;;11.60;99.90;;;;;;4939902;28;20058;-72
2022/06/15 02:16:24;;;;;;;12.02;4.78;;;11.50;99.90;;;;;;4885644;28;209675;-72
2022/06/15 02:18:52;;;;;;;11.65;5.07;;;11.50;99.90;;;;;;4947776;28;20420;-72
2022/06/15 02:21:20;;;;;;;13.25;5.32;;;11.40;99.90;;;;;;4872166;28;211657;-73
2022/06/15 02:23:51;;;;;;;10.40;4.22;;;11.40;99.90;;;;;;4937140;28;20050;-72
2022/06/15 02:26:18;;;;;;;14.40;5.20;;;11.40;99.90;;;;;;4881637;28;212127;-72
2022/06/15 02:28:51;;;;;;;11.80;5.20;;;11.40;99.90;;;;;;4925268;28;20111;-72
2022/06/15 02:31:18;;;;;;;12.18;4.95;;;11.40;99.90;;;;;;4879228;28;266237;-72
2022/06/15 02:33:51;;;;;;;16.02;5.22;;;11.40;99.90;;;;;;4926257;28;20050;-72
2022/06/15 02:36:17;;;;;;;14.30;5.43;;;11.30;99.90;;;;;;4879183;28;168310;-72
2022/06/15 02:38:46;;;;;;;11.85;5.30;;;11.30;99.90;;;;;;4928120;28;20050;-71
2022/06/15 02:41:13;;;;;;;12.30;5.50;;;11.30;99.90;;;;;;4887401;28;210636;-71
2022/06/15 02:43:41;;;;;;;12.52;5.30;;;11.30;99.90;;;;;;4941342;28;20059;-70
2022/06/15 02:46:10;;;;;;;10.82;4.80;;;11.30;99.90;;;;;;4880360;28;207246;-70
2022/06/15 02:48:37;;;;;;;13.48;5.57;;;11.20;99.90;;;;;;4941830;28;20058;-70
2022/06/15 02:51:12;;;;;;;10.90;4.70;;;11.20;99.90;;;;;;4962919;28;275083;-70
2022/06/15 02:53:40;;;;;;;11.27;4.72;;;11.20;99.90;;;;;;5035903;28;20064;-71
2022/06/15 02:56:09;;;;;;;12.38;5.00;;;11.10;99.90;;;;;;4958002;28;239978;-70
2022/06/15 02:58:39;;;;;;;13.85;5.82;;;11.10;99.90;;;;;;5015356;28;20064;-71
2022/06/15 03:01:06;;;;;;;14.25;6.05;;;11.10;99.90;;;;;;4976932;28;260456;-71
2022/06/15 03:03:33;;;;;;;13.73;6.07;;;11.10;99.90;;;;;;5038454;28;20060;-71
2022/06/15 03:05:59;;;;;;;13.02;5.50;;;11.10;99.90;;;;;;4951772;28;269594;-71
2022/06/15 03:08:26;;;;;;;12.50;4.82;;;11.10;99.90;;;;;;5027646;28;20049;-71
2022/06/15 03:10:53;;;;;;;14.15;5.70;;;11.00;99.90;;;;;;4958848;28;209819;-70
2022/06/15 03:13:20;;;;;;;12.32;5.13;;;11.00;99.90;;;;;;5021386;28;20053;-69
2022/06/15 03:15:46;;;;;;;12.68;5.90;;;11.00;99.90;;;;;;4960060;28;206972;-71
2022/06/15 03:18:13;;;;;;;13.90;6.35;;;11.00;99.90;;;;;;5017988;28;20049;-71
2022/06/15 03:20:39;;;;;;;13.43;5.60;;;11.00;99.90;;;;;;4978169;28;269914;-70
2022/06/15 03:23:06;;;;;;;12.35;6.07;;;11.00;99.90;;;;;;5035182;28;20083;-71
2022/06/15 03:25:37;;;;;;;13.38;6.15;;;11.00;99.90;;;;;;4976226;28;273886;-70
2022/06/15 03:28:04;;;;;;;11.40;5.70;;;11.00;99.90;;;;;;5014600;28;20060;-70
2022/06/15 03:30:30;;;;;;;10.90;5.40;;;10.90;99.90;;;;;;4969580;28;256056;-70
2022/06/15 03:32:56;;;;;;;12.00;4.82;;;10.90;99.90;;;;;;5015914;28;20059;-71
2022/06/15 03:35:22;;;;;;;14.23;6.17;;;10.90;99.90;;;;;;4979090;28;250762;-70
2022/06/15 03:37:50;;;;;;;13.50;5.78;;;10.90;99.90;;;;;;5017706;28;20059;-71
2022/06/15 03:40:16;;;;;;;11.50;5.65;;;10.90;99.90;;;;;;4966465;28;205606;-70
2022/06/15 03:42:42;;;;;;;13.70;6.00;;;10.90;99.90;;;;;;5012772;28;20998;-72
2022/06/15 03:45:13;;;;;;;13.48;5.90;;;11.00;99.90;;;;;;5023505;28;275519;-69
2022/06/15 03:47:39;;;;;;;12.00;5.55;;;11.00;99.90;;;;;;4973005;28;33439;-70
2022/06/15 03:50:05;;;;;;;11.90;5.95;;;11.00;99.90;;;;;;5011954;28;166552;-70
2022/06/15 03:52:31;;;;;;;13.60;5.10;;;11.00;99.90;;;;;;4996402;28;206460;-69
2022/06/15 03:54:57;;;;;;;13.48;6.10;;;11.10;99.90;;;;;;4993747;28;121273;-70
2022/06/15 03:57:23;;;;;;;14.15;5.47;;;11.10;99.90;;;;;;4990081;28;205583;-70
2022/06/15 03:59:50;;;;;;;14.43;5.90;;;11.20;99.90;;;;;;5023740;28;253504;-72
2022/06/15 04:02:16;;;;;;;11.82;5.45;;;11.20;99.90;;;;;;4977511;28;207352;-71
2022/06/15 04:04:42;;;;;;;10.80;5.15;;;11.20;99.90;;;;;;5007348;28;282916;-71
2022/06/15 04:08:34;;;;;;;15.77;6.65;;;11.30;99.90;;;;;;4969919;28;209812;-71
2022/06/15 04:09:56;;;;;;;12.55;5.15;;;11.30;99.90;;;;;;5023763;28;242676;-71
2022/06/15 04:12:22;;;;;;;15.38;6.13;;;11.30;99.90;;;;;;4975812;28;106874;-71
2022/06/15 04:14:49;;;;;;;12.65;5.32;;;11.30;99.90;;;;;;5005980;28;232228;-71
2022/06/15 04:17:17;;;;;;;11.60;5.22;;;11.40;99.90;;;;;;4961794;28;207732;-70
2022/06/15 04:19:43;;;;;;;13.25;5.43;;;11.40;99.90;;;;;;5025543;28;251276;-70
2022/06/15 04:22:09;;;;;;;11.52;5.95;;;11.50;99.90;;;;;;4991633;28;210695;-70
2022/06/15 04:24:39;;;;;;;12.73;5.90;;;11.50;99.90;;;;;;5014054;28;43552;-70
2022/06/15 04:27:05;;;;;;;13.65;5.57;;;11.70;99.90;;;;;;4985663;28;208276;-69
2022/06/15 04:29:31;;;;;;;11.77;5.22;;;11.70;99.90;;;;;;5023732;28;259945;-70
2022/06/15 04:31:57;;;;;;;11.68;5.43;;;11.80;99.90;;;;;;4962734;28;206827;-70
2022/06/15 04:34:23;;;;;;;12.15;5.15;;;11.90;99.90;;;;;;5002442;28;263575;-70
2022/06/15 04:36:49;;;;;;;15.15;6.50;;;12.00;99.90;;;;;;4979955;28;114991;-69
2022/06/15 04:39:15;;;;;;;12.90;5.50;;;12.10;99.90;;;;;;5024491;28;232546;-70
2022/06/15 04:41:42;;;;;;;12.45;5.32;;;12.10;99.90;;;;;;5003786;28;212981;-70
2022/06/15 04:44:10;;;;;;;13.05;5.55;;;12.30;99.90;;;;;;5006174;28;239703;-69
2022/06/15 04:46:37;;;;;;;13.57;5.65;;;12.30;99.90;;;;;;4974853;28;211010;-70
2022/06/15 04:49:03;;;;;;;15.80;6.18;;;12.40;99.90;;;;;;5018546;28;248458;-70
2022/06/15 04:51:30;;;;;;;11.77;4.85;;;12.50;99.90;;;;;;4979665;28;206680;-70
2022/06/15 04:53:58;;;;;;;15.13;5.30;;;12.50;99.90;;;;;;5039211;28;20041;-69
2022/06/15 04:56:25;;;;;;;12.90;4.90;;;12.60;99.90;;;;;;4948052;28;243769;-71
2022/06/15 04:58:52;;;;;;;11.23;5.30;;;12.80;99.90;;;;;;5035832;28;20057;-71
2022/06/15 05:01:18;;;;;;;11.70;5.32;;;12.90;99.90;;;;;;4972648;28;275750;-71
2022/06/15 05:03:44;;;;;;;12.10;5.15;;;12.90;99.90;;;;;;5038701;28;20060;-70
2022/06/15 05:06:31;;;;;;;13.65;5.30;;;13.00;99.90;;;;;;4961809;28;257661;-71
2022/06/15 05:08:57;;;;;;;14.75;5.65;;;13.10;99.90;;;;;;5036758;28;20123;-70
2022/06/15 05:11:26;;;;;;;12.35;5.30;;;13.20;99.90;;;;;;4969899;28;250865;-70
2022/06/15 05:13:53;;;;;;;14.13;4.80;;;13.30;99.90;;;;;;5024358;28;20079;-69
2022/06/15 05:16:19;;;;;;;12.70;4.43;;;13.40;99.90;;;;;;4969109;28;249682;-70
2022/06/15 05:18:46;;;;;;;13.23;4.43;;;13.50;99.90;;;;;;5014065;28;20052;-70
2022/06/15 05:21:13;;;;;;;13.98;4.80;;;13.60;99.90;;;;;;4970469;28;249049;-70
2022/06/15 05:23:39;;;;;;;12.18;4.38;;;13.70;99.90;;;;;;5042730;28;20057;-70
2022/06/15 05:26:05;;;;;;;12.52;4.50;;;13.80;99.90;;;;;;4981758;28;255895;-71
2022/06/15 05:28:31;;;;;;;12.57;4.20;;;13.90;99.90;;;;;;5041282;28;20051;-70
2022/06/15 05:31:11;;;;;;;11.38;3.88;;;14.00;99.90;;;;;;4969780;28;263182;-70
2022/06/15 05:33:40;;;;;;;12.65;4.15;;;14.10;99.90;;;;;;5038678;28;20382;-70
2022/06/15 05:36:09;;;;;;;11.23;4.10;;;14.20;99.90;;;;;;4953249;28;243747;-70
2022/06/15 05:38:36;;;;;;;15.35;4.45;;;14.40;99.90;;;;;;5035387;28;20064;-69
2022/06/15 05:41:04;;;;;;;12.23;3.78;;;14.50;99.90;;;;;;4972285;28;265620;-71
2022/06/15 05:43:33;;;;;;;11.90;4.22;;;14.60;99.90;;;;;;5033958;28;20064;-70
2022/06/15 05:45:59;;;;;;;9.18;3.30;;;14.70;99.90;;;;;;4967511;28;206979;-69
2022/06/15 05:48:25;;;;;;;10.77;3.42;;;14.90;99.90;;;;;;5038657;28;20048;-69
2022/06/15 05:50:51;;;;;;;11.68;3.70;;;15.00;99.90;;;;;;4985354;28;257861;-69
2022/06/15 05:53:17;;;;;;;12.73;3.70;;;15.00;99.90;;;;;;5037817;28;20764;-70
2022/06/15 05:55:43;;;;;;;10.93;3.40;;;15.20;99.90;;;;;;4968026;28;273274;-70
2022/06/15 05:58:09;;;;;;;9.50;3.28;;;15.30;99.90;;;;;;5037560;28;20056;-69
2022/06/15 06:00:35;;;;;;;13.80;3.75;;;15.30;99.90;;;;;;4971599;28;261533;-70
2022/06/15 06:03:01;;;;;;;8.32;2.90;;;15.40;99.90;;;;;;5020613;28;20061;-70
2022/06/15 06:05:28;;;;;;;11.10;3.45;;;15.50;99.90;;;;;;4953777;28;265640;-70
2022/06/15 06:07:54;;;;;;;9.07;2.95;;;15.60;99.90;;;;;;5020578;28;20452;-68
2022/06/15 06:10:20;;;;;;;10.57;3.20;;;15.60;99.90;;;;;;4965314;28;207062;-70
2022/06/15 06:12:46;;;;;;;12.07;2.92;;;15.70;99.90;;;;;;5038848;28;20068;-71
2022/06/15 06:15:13;;;;;;;13.27;3.42;;;15.80;99.90;;;;;;5004529;28;263922;-70
2022/06/15 06:17:39;;;;;;;10.45;2.85;;;16.00;99.90;;;;;;5009870;28;192182;-70
2022/06/15 06:20:05;;;;;;;10.07;2.83;;;16.30;99.90;;;;;;5022404;28;260754;-71
2022/06/15 06:22:31;;;;;;;11.50;2.60;;;16.70;99.90;;;;;;4990914;28;207398;-70
2022/06/15 06:24:58;;;;;;;12.82;2.60;;;17.00;99.90;;;;;;5010618;28;141939;-71
2022/06/15 06:27:24;;;;;;;10.93;2.47;;;17.30;99.90;;;;;;4975339;28;214842;-71
2022/06/15 06:29:50;;;;;;;9.50;2.50;;;17.70;99.90;;;;;;5024707;28;247484;-71
2022/06/15 06:32:17;;;;;;;9.88;2.30;;;18.00;99.90;;;;;;4988215;28;207650;-71
2022/06/15 06:34:43;;;;;;;10.25;2.40;;;18.20;99.90;;;;;;5024777;28;262324;-71
2022/06/15 06:37:13;;;;;;;10.63;3.15;;;18.40;99.90;;;;;;4997820;28;193789;-71
2022/06/15 06:39:39;;;;;;;10.18;3.00;;;18.60;99.90;;;;;;5009462;28;132939;-71
2022/06/15 06:42:05;;;;;;;11.52;3.03;;;18.60;99.90;;;;;;4975631;28;212473;-72
2022/06/15 06:44:32;;;;;;;10.75;3.03;;;18.70;99.90;;;;;;5022638;28;270016;-71
2022/06/15 06:46:58;;;;;;;10.63;3.03;;;18.70;99.90;;;;;;4975705;28;208959;-71
2022/06/15 06:49:25;;;;;;;12.10;2.80;;;18.70;99.90;;;;;;4988707;28;266749;-72
2022/06/15 06:51:51;;;;;;;11.02;2.80;;;18.60;99.90;;;;;;4971882;28;207584;-72
2022/06/15 06:54:20;;;;;;;9.02;2.50;;;18.60;99.90;;;;;;5021081;28;257178;-71
2022/06/15 06:56:47;;;;;;;9.60;3.05;;;18.50;99.90;;;;;;4965123;28;208506;-71
2022/06/15 06:59:15;;;;;;;11.70;3.08;;;18.50;99.90;;;;;;5018547;28;252308;-72
2022/06/15 07:01:43;;;;;;;11.95;2.42;;;18.70;99.90;;;;;;4977574;28;211998;-71
2022/06/15 07:04:11;;;;;;;9.90;2.88;;;18.90;99.90;;;;;;4992029;28;257080;-72
2022/06/15 07:06:38;;;;;;;10.73;2.92;;;19.10;99.90;;;;;;4965877;28;78939;-70
2022/06/15 07:09:04;;;;;;;13.15;2.83;;;19.50;99.90;;;;;;5027648;28;264769;-71
2022/06/15 07:11:30;;;;;;;12.07;2.83;;;19.70;99.90;;;;;;4997015;28;206179;-71
2022/06/15 07:13:57;;;;;;;9.52;2.78;;;19.70;99.90;;;;;;5042409;28;20489;-72
2022/06/15 07:16:23;;;;;;;10.45;2.83;;;19.80;99.90;;;;;;4977379;28;268916;-71
2022/06/15 07:18:49;;;;;;;8.65;2.53;;;20.10;99.90;;;;;;5040268;28;20053;-71
2022/06/15 07:21:19;;;;;;;8.45;2.20;;;20.40;99.90;;;;;;4979159;28;265852;-71
2022/06/15 07:23:49;;;;;;;11.45;2.33;;;20.60;99.90;;;;;;5044042;28;20494;-71
2022/06/15 07:26:18;;;;;;;;;;;20.90;99.90;;;;;;4978014;28;202473;-71
2022/06/15 07:28:44;;;;;;;9.23;2.10;;;21.20;99.90;;;;;;5040880;28;19916;-71
2022/06/15 07:31:19;;;;;;;8.38;2.08;;;21.40;99.90;;;;;;4981522;28;276180;-71
2022/06/15 07:33:45;;;;;;;11.48;2.20;;;21.60;99.90;;;;;;5026672;28;20052;-72
2022/06/15 07:36:11;;;;;;;9.00;2.20;;;21.80;99.90;;;;;;4963434;28;209509;-71
2022/06/15 07:38:37;;;;;;;9.25;2.20;;;21.90;99.90;;;;;;5026679;28;20045;-71
2022/06/15 07:41:03;;;;;;;8.40;2.10;;;22.10;99.90;;;;;;4976042;28;271314;-72
2022/06/15 07:43:31;;;;;;;11.73;2.28;;;22.30;99.50;;;;;;5043595;28;20052;-72
2022/06/15 07:45:57;;;;;;;11.15;2.30;;;22.40;98.10;;;;;;4968621;28;210696;-71
2022/06/15 07:51:09;;;;;;;10.60;2.78;;;22.60;98.00;;;;;;4975625;28;271685;-71
2022/06/15 07:53:36;;;;;;;10.43;2.50;;;22.70;97.70;;;;;;5045864;28;20045;-73
2022/06/15 07:56:04;;;;;;;8.75;2.30;;;22.80;97.30;;;;;;4983430;28;262543;-72
2022/06/15 07:58:30;;;;;;;10.50;2.70;;;23.00;97.10;;;;;;5026569;28;20049;-72
2022/06/15 08:00:56;;;;;;;7.95;2.08;;;23.20;96.30;;;;;;4984618;28;247483;-72
2022/06/15 08:03:22;;;;;;;11.45;2.35;;;23.20;95.70;;;;;;5041307;28;20506;-71
2022/06/15 08:05:50;;;;;;;9.93;2.53;;;23.40;95.00;;;;;;4964294;28;265516;-72
2022/06/15 08:08:23;;;;;;;11.43;2.40;;;23.60;94.40;;;;;;5023372;28;20375;-72
2022/06/15 08:10:51;;;;;;;9.85;2.83;;;23.70;93.20;;;;;;4981929;28;213906;-72
2022/06/15 08:13:18;;;;;;;8.80;2.40;;;23.90;92.60;;;;;;5042274;28;20056;-73
2022/06/15 08:15:46;;;;;;;11.10;2.80;;;24.10;92.30;;;;;;4972243;28;266228;-72
2022/06/15 08:18:17;;;;;;;10.10;2.50;;;24.40;90.60;;;;;;5029044;28;20494;-72
2022/06/15 08:21:06;;;;;;;12.77;2.80;;;24.60;87.70;;;;;;4982501;28;252114;-73
2022/06/15 08:23:35;;;;;;;11.88;2.80;;;24.90;87.60;;;;;;5027545;28;20068;-72
2022/06/15 08:26:05;;;;;;;10.13;2.63;;;25.10;84.00;;;;;;4970987;28;254406;-71
2022/06/15 08:28:38;;;;;;;11.40;2.80;;;25.10;79.80;;;;;;5042647;28;20060;-72
2022/06/15 08:31:04;;;;;;;10.15;2.50;;;25.20;77.70;;;;;;4980702;28;267747;-76
2022/06/15 08:33:31;;;;;;;10.95;2.35;;;25.20;74.10;;;;;;5042345;28;20374;-71
2022/06/15 08:35:57;;;;;;;9.25;2.40;;;25.20;73.50;;;;;;4977457;28;271636;-73
2022/06/15 08:38:26;;;;;;;10.70;2.50;;;24.90;70.60;;;;;;5030298;28;20068;-71
2022/06/15 08:41:06;;;;;;;10.73;2.38;;;24.50;69.70;;;;;;4968621;28;202574;-71
2022/06/15 08:43:40;;;;;;;8.43;2.15;;;24.60;69.30;;;;;;5042021;28;20747;-71
2022/06/15 08:46:24;;;;;;;11.23;2.30;;;24.50;69.70;;;;;;4984719;28;252551;-71
2022/06/15 08:48:53;;;;;;;8.85;1.95;;;24.30;67.60;;;;;;5026769;28;20068;-71
2022/06/15 08:51:29;;;;;;;9.68;1.92;;;24.50;67.80;;;;;;4938134;28;253156;-71
2022/06/15 08:54:29;;;;;;;7.47;1.70;;;24.80;67.90;;;;;;5041984;28;20057;-72
2022/06/15 08:57:11;;;;;;;8.55;1.75;;;25.20;64.70;;;;;;4945844;28;206967;-71
2022/06/15 08:59:46;;;;;;;7.43;1.77;;;25.70;65.30;;;;;;5024629;28;254098;-71
2022/06/15 09:02:49;;;;;;;7.10;1.60;;;26.00;60.90;;;;;;4988636;28;205623;-71
2022/06/15 09:05:59;;;;;;;8.20;1.88;;;26.30;58.40;;;;;;4985116;28;175368;-70
2022/06/15 09:08:43;;;;;;;8.98;1.90;;;26.50;52.30;;;;;;4920987;28;207823;-71
2022/06/15 09:11:35;;;;;;;9.45;2.00;;;26.80;58.10;;;;;;4900511;28;192380;-71
2022/06/15 09:14:24;;;;;;;11.82;2.10;;;27.30;53.80;;;;;;4935084;28;20054;-71
2022/06/15 09:17:04;;;;;;;9.02;1.80;;;27.10;52.90;;;;;;4888641;28;206300;-72
2022/06/15 09:19:42;;;;;;;;;;;27.00;54.50;;;;;;4937075;28;211156;-72
2022/06/15 09:22:16;;;;;;;12.18;2.10;;;26.30;52.30;;;;;;4890517;28;219083;-72
2022/06/15 09:24:51;;;;;;;11.52;2.13;;;25.60;54.80;;;;;;4943789;28;84526;-72
2022/06/15 09:27:33;;;;;;;10.07;1.77;;;25.20;54.20;;;;;;4902948;28;206435;-72
2022/06/15 09:30:08;;;;;;;7.35;1.60;;;24.90;55.00;;;;;;4932330;28;108866;-72
2022/06/15 09:32:39;;;;;;;8.50;1.83;;;24.80;55.90;;;;;;4898248;28;205711;-71
2022/06/15 09:35:36;;;;;;;9.48;2.00;;;25.30;56.30;;;;;;4936530;28;157167;-71
2022/06/15 09:38:06;;;;;;;10.35;1.80;;;25.00;52.80;;;;;;4906143;28;207541;-71
2022/06/15 09:40:46;;;;;;;9.95;1.65;;;24.70;55.20;;;;;;4893191;28;210117;-72
2022/06/15 09:43:26;;;;;;;9.30;1.58;;;25.30;55.30;;;;;;4960393;28;20058;-70
2022/06/15 09:46:07;;;;;;;6.93;1.58;;;26.20;56.20;;;;;;4946451;28;214194;-72
2022/06/15 09:49:00;;;;;;;10.80;1.60;;;26.90;53.90;;;;;;5043269;28;20166;-71
2022/06/15 09:51:52;;;;;;;10.57;2.13;;;27.10;51.20;;;;;;4984045;28;203671;-71
2022/06/15 09:54:29;;;;;;;9.30;2.00;;;26.70;49.40;;;;;;5022496;28;269999;-72
2022/06/15 09:56:56;;;;;;;8.65;1.45;;;26.50;51.60;;;;;;4954008;28;208147;-71
2022/06/15 09:59:24;;;;;;;8.90;1.80;;;26.80;53.20;;;;;;5000435;28;277873;-71
2022/06/15 10:01:50;;;;;;;8.60;1.70;;;27.00;52.30;;;;;;4993193;28;161204;-71
2022/06/15 10:04:21;;;;;;;10.00;1.90;;;26.90;51.30;;;;;;5005881;28;255235;-70
2022/06/15 10:06:57;;;;;;;8.75;1.73;;;26.60;50.80;;;;;;4997530;28;183214;-71
2022/06/15 10:09:27;;;;;;;9.68;1.85;;;26.70;51.60;;;;;;5003039;28;257917;-71
2022/06/15 10:12:55;;;;;;;7.57;1.50;;;27.00;52.90;;;;;;4990857;28;208166;-71
2022/06/15 10:14:48;;;;;;;11.25;1.73;;;27.50;50.60;;;;;;5026652;28;259560;-72
2022/06/15 10:17:30;;;;;;;10.23;1.83;;;27.20;49.40;;;;;;4994791;28;205841;-72
2022/06/15 10:19:58;;;;;;;10.82;1.95;;;27.00;49.80;;;;;;5023403;28;250172;-72
2022/06/15 10:22:31;;;;;;;8.10;1.77;;;27.00;50.60;;;;;;4976660;28;199527;-72
2022/06/15 10:25:02;;;;;;;7.53;1.60;;;27.40;50.60;;;;;;5008496;28;131786;-72
2022/06/15 10:27:30;;;;;;;;;;;27.90;50.70;;;;;;4980696;28;147856;-72
2022/06/15 10:30:11;;;;;;;7.70;1.70;;;28.10;47.40;;;;;;5007988;28;160106;-72
2022/06/15 10:32:59;;;;;;;9.38;1.67;;;27.90;45.90;;;;;;4960786;28;207199;-72
2022/06/15 10:35:29;;;;;;;7.95;1.70;;;28.20;49.70;;;;;;4973890;28;270886;-72
2022/06/15 10:38:01;;;;;;;7.80;1.60;;;28.50;48.30;;;;;;5028417;28;20044;-72
2022/06/15 10:40:31;;;;;;;7.95;1.65;;;28.20;48.60;;;;;;4971807;28;262615;-72
2022/06/15 10:43:00;;;;;;;9.13;2.00;;;28.00;47.30;;;;;;5006119;28;20040;-72
2022/06/15 10:45:33;;;;;;;9.57;1.63;;;27.90;47.20;;;;;;4977761;28;244049;-72
2022/06/15 10:48:06;;;;;;;9.52;1.88;;;28.00;47.20;;;;;;5019493;28;20080;-72
2022/06/15 10:50:53;;;;;;;9.15;2.00;;;28.10;46.10;;;;;;4980958;28;244726;-72
2022/06/15 10:53:32;;;;;;;9.18;2.08;;;27.60;46.90;;;;;;5014686;28;20048;-72
2022/06/15 11:02:07;;;;;;;9.60;2.00;;;28.10;48.40;;;;;;4970399;28;206167;-72
2022/06/15 11:04:50;;;;;;;8.73;2.05;;;27.60;47.60;;;;;;4997393;28;157483;-72
2022/06/15 11:07:22;;;;;;;8.07;1.90;;;27.20;48.00;;;;;;4951860;28;204073;-71
2022/06/15 11:09:54;;;;;;;6.80;1.77;;;26.80;48.50;;;;;;5010637;28;72141;-72
2022/06/15 11:12:34;;;;;;;7.82;1.85;;;26.50;49.50;;;;;;4975989;28;217137;-72
2022/06/15 11:15:13;;;;;;;9.20;1.83;;;26.20;50.30;;;;;;5013608;28;160881;-72
2022/06/15 11:18:03;;;;;;;9.93;2.00;;;26.70;50.80;;;;;;4952407;28;206551;-72
2022/06/15 11:21:06;;;;;;;10.07;2.30;;;27.30;48.40;;;;;;4961606;28;218283;-73
2022/06/15 11:23:57;;;;;;;7.10;1.70;;;27.40;46.70;;;;;;5043155;28;20061;-72
2022/06/15 11:27:01;;;;;;;8.27;1.90;;;27.50;49.30;;;;;;4976078;28;209471;-72
2022/06/15 11:29:52;;;;;;;7.63;1.73;;;27.30;47.10;;;;;;5029279;28;254332;-72
2022/06/15 11:32:21;;;;;;;8.18;1.70;;;26.70;47.70;;;;;;4980474;28;218136;-72
2022/06/15 11:35:14;;;;;;;7.80;1.70;;;26.50;47.70;;;;;;5026351;28;258655;-72
2022/06/15 11:37:46;;;;;;;7.38;1.60;;;26.50;47.90;;;;;;4945880;28;27373;-71
2022/06/15 11:40:20;;;;;;;8.18;2.00;;;26.40;47.60;;;;;;4943579;28;62933;-71
2022/06/15 11:42:53;;;;;;;7.95;1.95;;;26.90;49.50;;;;;;4939169;28;84231;-72
2022/06/15 11:45:28;;;;;;;8.52;1.90;;;27.60;48.80;;;;;;4938514;28;220108;-72
2022/06/15 11:48:21;;;;;;;9.82;2.03;;;28.10;48.00;;;;;;4961708;28;20119;-72
2022/06/15 11:50:57;;;;;;;7.85;1.60;;;28.60;47.90;;;;;;4924047;28;220714;-72
2022/06/15 11:53:29;;;;;;;7.15;1.90;;;29.20;47.30;;;;;;4981864;28;21197;-72
2022/06/15 11:56:11;;;;;;;6.82;1.63;;;29.70;46.50;;;;;;4925062;28;198887;-72
2022/06/15 11:58:43;;;;;;;10.75;2.17;;;29.90;45.90;;;;;;4962755;28;20050;-72
2022/06/15 12:01:28;;;;;;;8.88;1.90;;;30.10;46.30;;;;;;4911768;28;213920;-72
2022/06/15 12:04:12;;;;;;;9.25;1.75;;;30.30;45.00;;;;;;4986119;28;21234;-72
2022/06/15 12:07:07;;;;;;;7.40;1.70;;;30.00;45.80;;;;;;4902404;28;206191;-72
2022/06/15 12:10:07;;;;;;;8.23;1.77;;;29.30;44.20;;;;;;4966616;28;33801;-72
2022/06/15 12:12:42;;;;;;;7.35;1.73;;;27.90;43.80;;;;;;4944540;28;216246;-71
2022/06/15 12:15:32;;;;;;;9.65;1.90;;;28.00;45.90;;;;;;5008491;28;266308;-72
2022/06/15 12:18:23;;;;;;;8.40;1.90;;;28.30;46.20;;;;;;4967738;28;168372;-72
2022/06/15 12:20:55;;;;;;;8.55;1.83;;;29.00;45.40;;;;;;4973003;28;264405;-72
2022/06/15 12:23:31;;;;;;;8.90;1.90;;;29.30;45.40;;;;;;5018991;28;20057;-71
2022/06/15 12:26:03;;;;;;;7.57;1.70;;;29.90;44.90;;;;;;4989295;28;253565;-72
2022/06/15 12:29:02;;;;;;;9.60;1.80;;;30.30;43.80;;;;;;5038403;28;20056;-72
2022/06/15 12:31:37;;;;;;;9.23;1.80;;;30.60;43.50;;;;;;4989301;28;163806;-72
2022/06/15 12:34:10;;;;;;;7.93;1.80;;;31.00;42.00;;;;;;5039025;28;270434;-72
2022/06/15 12:36:48;;;;;;;8.23;1.90;;;31.10;42.20;;;;;;4980169;28;209250;-72
2022/06/15 12:39:45;;;;;;;9.00;1.85;;;31.00;41.30;;;;;;5008711;28;263888;-73
2022/06/15 12:42:14;;;;;;;7.82;1.60;;;31.10;42.60;;;;;;4916806;28;207601;-72
2022/06/15 12:44:52;;;;;;;8.97;2.03;;;30.70;43.20;;;;;;4932404;28;131601;-72
2022/06/15 12:47:20;;;;;;;9.32;1.60;;;30.60;41.40;;;;;;4900086;28;212108;-73
2022/06/15 12:50:54;;;;;;;8.85;1.70;;;30.70;43.20;;;;;;4944387;28;228051;-72
2022/06/15 12:53:47;;;;;;;7.97;1.58;;;31.10;41.50;;;;;;4783571;29;208584;-72
2022/06/15 12:56:29;;;;;;;6.88;1.55;;;31.40;42.60;;;;;;4810069;29;215134;-70
2022/06/15 12:59:32;;;;;;;6.47;1.50;;;31.90;42.80;;;;;;4851795;29;20679;-72
2022/06/15 13:02:29;;;;;;;7.78;1.50;;;31.80;41.50;;;;;;4789565;29;207114;-72
2022/06/15 13:05:09;;;;;;;8.35;1.70;;;31.40;41.90;;;;;;4801908;29;246015;-73
2022/06/15 13:07:38;;;;;;;8.15;1.73;;;31.00;42.20;;;;;;4802919;29;204215;-72
2022/06/15 13:10:06;;;;;;;11.30;1.70;;;30.70;43.20;;;;;;4835023;29;217841;-72
2022/06/15 13:12:47;;;;;;;8.80;1.67;;;31.00;42.30;;;;;;4822684;29;208933;-72